Time;durP1;ratioP1;P1;durP2;ratioP2;P2;SDS_P1;SDS_P2;PMS_P1;PMS_P2;Temp;Humidity;BMP_temperature;BMP_pressure;BME280_temperature;BME280_humidity;BME280_pressure;Samples;Min_cycle;Max_cycle;Signal;HPM_P1;HPM_P2
2024/04/08 00:01:24;;;;;;;;;;;;;;;;;;5097803;27;20417;-74
2024/04/08 00:03:52;;;;;;;;;;;;;;;;;;5080808;27;19922;-74
2024/04/08 00:06:19;;;;;;;;;;;;;;;;;;5099069;27;20314;-74
2024/04/08 00:08:47;;;;;;;;;;;;;;;;;;5078532;27;19920;-74
2024/04/08 00:11:13;;;;;;;;;;;;;;;;;;5097972;27;20299;-74
2024/04/08 00:13:38;;;;;;;;;;;;;;;;;;5098197;27;19920;-74
2024/04/08 00:16:06;;;;;;;;;;;;;;;;;;5079926;27;19911;-74
2024/04/08 00:18:34;;;;;;;;;;;;;;;;;;5096909;27;20483;-73
2024/04/08 00:20:59;;;;;;;;;;;;;;;;;;5097572;27;20022;-73
2024/04/08 00:23:27;;;;;;;;;;;;;;;;;;5063067;27;20659;-74
2024/04/08 00:25:55;;;;;;;;;;;;;;;;;;5081696;27;19920;-75
2024/04/08 00:28:20;;;;;;;;;;;;;;;;;;5078348;27;19919;-74
2024/04/08 00:30:45;;;;;;;;;;;;;;;;;;5098827;27;19974;-74
2024/04/08 00:33:11;;;;;;;;;;;;;;;;;;5099541;27;20057;-73
2024/04/08 00:35:36;;;;;;;;;;;;;;;;;;5078438;27;20570;-73
2024/04/08 00:38:04;;;;;;;;;;;;;;;;;;5080796;27;20003;-73
2024/04/08 00:40:30;;;;;;;;;;;;;;;;;;5079423;27;20580;-73
2024/04/08 00:42:56;;;;;;;;;;;;;;;;;;5079277;27;19916;-73
2024/04/08 00:45:21;;;;;;;;;;;;;;;;;;5100030;27;20379;-74
2024/04/08 00:47:49;;;;;;;;;;;;;;;;;;5079235;27;19949;-73
2024/04/08 00:50:14;;;;;;;;;;;;;;;;;;5063119;27;20552;-73
2024/04/08 00:52:39;;;;;;;;;;;;;;;;;;5079589;27;19938;-74
2024/04/08 00:55:04;;;;;;;;;;;;;;;;;;5081026;27;19916;-73
2024/04/08 00:57:30;;;;;;;;;;;;;;;;;;5077282;27;19945;-74
2024/04/08 00:59:55;;;;;;;;;;;;;;;;;;5078649;27;19916;-73
2024/04/08 01:02:23;;;;;;;;;;;;;;;;;;5079702;27;19931;-74
2024/04/08 01:04:48;;;;;;;;;;;;;;;;;;5078964;27;19938;-74
2024/04/08 01:07:16;;;;;;;;;;;;;;;;;;5097351;27;20499;-74
2024/04/08 01:09:41;;;;;;;;;;;;;;;;;;5075944;27;19978;-74
2024/04/08 01:12:06;;;;;;;;;;;;;;;;;;5078664;27;19994;-74
2024/04/08 01:14:32;;;;;;;;;;;;;;;;;;5078741;27;19997;-74
2024/04/08 01:16:59;;;;;;;;;;;;;;;;;;5099376;27;19919;-73
2024/04/08 01:19:24;;;;;;;;;;;;;;;;;;5074477;27;20302;-73
2024/04/08 01:21:55;;;;;;;;;;;;;;;;;;5080939;27;19927;-73
2024/04/08 01:24:20;;;;;;;;;;;;;;;;;;5074944;28;19916;-73
2024/04/08 01:26:48;;;;;;;;;;;;;;;;;;5077769;27;19926;-74
2024/04/08 01:29:16;;;;;;;;;;;;;;;;;;5076662;27;19919;-74
2024/04/08 01:31:43;;;;;;;;;;;;;;;;;;5095892;27;21645;-73
2024/04/08 01:34:09;;;;;;;;;;;;;;;;;;5093135;27;19940;-74
2024/04/08 01:36:36;;;;;;;;;;;;;;;;;;5097584;27;19920;-75
2024/04/08 01:39:02;;;;;;;;;;;;;;;;;;5079585;27;19984;-74
2024/04/08 01:41:29;;;;;;;;;;;;;;;;;;5078352;27;19919;-75
2024/04/08 01:43:55;;;;;;;;;;;;;;;;;;5095946;27;19963;-73
2024/04/08 01:46:22;;;;;;;;;;;;;;;;;;5079001;27;19963;-74
2024/04/08 01:48:50;;;;;;;;;;;;;;;;;;5059394;27;20091;-75
2024/04/08 01:51:18;;;;;;;;;;;;;;;;;;5078672;27;19958;-74
2024/04/08 01:53:46;;;;;;;;;;;;;;;;;;5077504;27;19915;-74
2024/04/08 01:56:11;;;;;;;;;;;;;;;;;;5096954;27;20294;-75
2024/04/08 01:58:37;;;;;;;;;;;;;;;;;;5077646;27;19920;-74
2024/04/08 02:01:04;;;;;;;;;;;;;;;;;;5095521;27;19932;-73
2024/04/08 02:03:29;;;;;;;;;;;;;;;;;;5077179;28;19998;-66
2024/04/08 02:05:57;;;;;;;;;;;;;;;;;;5078707;27;19941;-67
2024/04/08 02:08:25;;;;;;;;;;;;;;;;;;5060117;27;19996;-66
2024/04/08 02:11:08;;;;;;;;;;;;;;;;;;5076433;28;20262;-66
2024/04/08 02:13:33;;;;;;;;;;;;;;;;;;5079604;27;20294;-66
2024/04/08 02:15:59;;;;;;;;;;;;;;;;;;5097663;27;19919;-65
2024/04/08 02:18:24;;;;;;;;;;;;;;;;;;5095517;27;20049;-66
2024/04/08 02:20:52;;;;;;;;;;;;;;;;;;5073823;27;20367;-65
2024/04/08 02:23:20;;;;;;;;;;;;;;;;;;5094835;27;19915;-65
2024/04/08 02:25:48;;;;;;;;;;;;;;;;;;5076127;28;19922;-66
2024/04/08 02:28:15;;;;;;;;;;;;;;;;;;5077464;27;19962;-66
2024/04/08 02:30:46;;;;;;;;;;;;;;;;;;5078136;28;19931;-66
2024/04/08 02:33:11;;;;;;;;;;;;;;;;;;5094938;27;19978;-66
2024/04/08 02:35:39;;;;;;;;;;;;;;;;;;5078383;28;19920;-66
2024/04/08 02:38:04;;;;;;;;;;;;;;;;;;5093409;27;19923;-66
2024/04/08 02:40:31;;;;;;;;;;;;;;;;;;5077198;28;20340;-65
2024/04/08 02:42:57;;;;;;;;;;;;;;;;;;5095600;28;20634;-66
2024/04/08 02:45:22;;;;;;;;;;;;;;;;;;5095483;28;21517;-65
2024/04/08 02:47:47;;;;;;;;;;;;;;;;;;5094009;28;19923;-65
2024/04/08 02:50:18;;;;;;;;;;;;;;;;;;5094569;28;19915;-66
2024/04/08 02:52:43;;;;;;;;;;;;;;;;;;5075105;28;20396;-65
2024/04/08 02:55:08;;;;;;;;;;;;;;;;;;5060097;28;19920;-65
2024/04/08 02:57:35;;;;;;;;;;;;;;;;;;5096823;28;19961;-64
2024/04/08 03:00:04;;;;;;;;;;;;;;;;;;5097002;28;19916;-66
2024/04/08 03:02:29;;;;;;;;;;;;;;;;;;5095743;28;19973;-65
2024/04/08 03:04:54;;;;;;;;;;;;;;;;;;5075767;28;19920;-65
2024/04/08 03:07:19;;;;;;;;;;;;;;;;;;5097199;28;19971;-66
2024/04/08 03:09:47;;;;;;;;;;;;;;;;;;5077936;28;19915;-66
2024/04/08 03:12:17;;;;;;;;;;;;;;;;;;5093611;28;21454;-65
2024/04/08 03:14:46;;;;;;;;;;;;;;;;;;5092857;28;20461;-65
2024/04/08 03:17:11;;;;;;;;;;;;;;;;;;5068916;28;19972;-65
2024/04/08 03:19:36;;;;;;;;;;;;;;;;;;5092897;28;20129;-65
2024/04/08 03:22:01;;;;;;;;;;;;;;;;;;5061263;28;19923;-65
2024/04/08 03:24:29;;;;;;;;;;;;;;;;;;5081824;27;19919;-66
2024/04/08 03:26:57;;;;;;;;;;;;;;;;;;5077854;27;19926;-68
2024/04/08 03:29:22;;;;;;;;;;;;;;;;;;5081071;27;19938;-65
2024/04/08 03:31:47;;;;;;;;;;;;;;;;;;5080228;27;20379;-65
2024/04/08 03:34:12;;;;;;;;;;;;;;;;;;5078833;27;21311;-66
2024/04/08 03:36:40;;;;;;;;;;;;;;;;;;5100817;27;19923;-65
2024/04/08 03:39:08;;;;;;;;;;;;;;;;;;5082630;27;19920;-66
2024/04/08 03:41:33;;;;;;;;;;;;;;;;;;5098117;27;19916;-65
2024/04/08 03:44:04;;;;;;;;;;;;;;;;;;5079365;27;20169;-64
2024/04/08 03:46:29;;;;;;;;;;;;;;;;;;5064694;27;19916;-65
2024/04/08 03:48:54;;;;;;;;;;;;;;;;;;5061144;27;19976;-66
2024/04/08 03:51:22;;;;;;;;;;;;;;;;;;5081925;27;20021;-65
2024/04/08 03:53:50;;;;;;;;;;;;;;;;;;5079299;27;19916;-66
2024/04/08 03:56:18;;;;;;;;;;;;;;;;;;5098583;27;19927;-66
2024/04/08 03:58:43;;;;;;;;;;;;;;;;;;5080371;27;20353;-65
2024/04/08 04:01:11;;;;;;;;;;;;;;;;;;5098141;27;20194;-64
2024/04/08 04:03:36;;;;;;;;;;;;;;;;;;5099232;27;19923;-65
2024/04/08 04:06:01;;;;;;;;;;;;;;;;;;5099235;27;19922;-66
2024/04/08 04:08:29;;;;;;;;;;;;;;;;;;5099247;27;19926;-65
2024/04/08 04:10:54;;;;;;;;;;;;;;;;;;5079299;27;19919;-65
2024/04/08 04:13:19;;;;;;;;;;;;;;;;;;5077164;27;19927;-65
2024/04/08 04:15:51;;;;;;;;;;;;;;;;;;5097814;27;19915;-65
2024/04/08 04:18:16;;;;;;;;;;;;;;;;;;5080509;27;20333;-66
2024/04/08 04:20:45;;;;;;;;;;;;;;;;;;5063029;27;19928;-66
2024/04/08 04:23:18;;;;;;;;;;;;;;;;;;5064698;27;20038;-65
2024/04/08 04:25:43;;;;;;;;;;;;;;;;;;5060464;27;19962;-65
2024/04/08 04:28:13;;;;;;;;;;;;;;;;;;5098854;27;19919;-66
2024/04/08 04:30:39;;;;;;;;;;;;;;;;;;5079816;28;20014;-64
2024/04/08 04:33:06;;;;;;;;;;;;;;;;;;5078215;27;20363;-65
2024/04/08 04:35:34;;;;;;;;;;;;;;;;;;5097771;27;20526;-64
2024/04/08 04:37:59;;;;;;;;;;;;;;;;;;5075780;27;19924;-66
2024/04/08 04:40:28;;;;;;;;;;;;;;;;;;5098542;27;20391;-65
2024/04/08 04:42:55;;;;;;;;;;;;;;;;;;5078593;27;19927;-65
2024/04/08 04:45:24;;;;;;;;;;;;;;;;;;5080675;27;20016;-66
2024/04/08 04:47:49;;;;;;;;;;;;;;;;;;5079522;27;19925;-66
2024/04/08 04:50:14;;;;;;;;;;;;;;;;;;5096327;27;19952;-65
2024/04/08 04:52:40;;;;;;;;;;;;;;;;;;5079605;27;19926;-65
2024/04/08 04:55:08;;;;;;;;;;;;;;;;;;5079369;27;19923;-66
2024/04/08 04:57:38;;;;;;;;;;;;;;;;;;5096434;27;19990;-65
2024/04/08 05:00:04;;;;;;;;;;;;;;;;;;5063272;27;20360;-66
2024/04/08 05:02:29;;;;;;;;;;;;;;;;;;5096698;27;19912;-65
2024/04/08 05:04:55;;;;;;;;;;;;;;;;;;5079685;27;19930;-65
2024/04/08 05:07:23;;;;;;;;;;;;;;;;;;5078559;27;20380;-64
2024/04/08 05:09:53;;;;;;;;;;;;;;;;;;5078122;27;19919;-65
2024/04/08 05:12:18;;;;;;;;;;;;;;;;;;5095337;27;19930;-66
2024/04/08 05:14:43;;;;;;;;;;;;;;;;;;5095504;27;19920;-66
2024/04/08 05:17:12;;;;;;;;;;;;;;;;;;5078762;27;19919;-65
2024/04/08 05:19:37;;;;;;;;;;;;;;;;;;5098371;27;19923;-66
2024/04/08 05:22:05;;;;;;;;;;;;;;;;;;5100070;27;19972;-64
2024/04/08 05:24:30;;;;;;;;;;;;;;;;;;5077176;28;20337;-64
2024/04/08 05:27:00;;;;;;;;;;;;;;;;;;5081098;27;20022;-64
2024/04/08 05:29:26;;;;;;;;;;;;;;;;;;5079352;27;20021;-65
2024/04/08 05:31:53;;;;;;;;;;;;;;;;;;5081746;27;19928;-65
2024/04/08 05:34:19;;;;;;;;;;;;;;;;;;5079330;27;19922;-65
2024/04/08 05:36:44;;;;;;;;;;;;;;;;;;5077544;27;20092;-64
2024/04/08 05:39:12;;;;;;;;;;;;;;;;;;5075323;27;19919;-65
2024/04/08 05:41:38;;;;;;;;;;;;;;;;;;5094447;27;19926;-65
2024/04/08 05:44:03;;;;;;;;;;;;;;;;;;5072985;27;19919;-65
2024/04/08 05:46:28;;;;;;;;;;;;;;;;;;5076606;27;19973;-65
2024/04/08 05:48:53;;;;;;;;;;;;;;;;;;5097218;27;19923;-65
2024/04/08 05:51:19;;;;;;;;;;;;;;;;;;5099436;27;19941;-65
2024/04/08 05:53:44;;;;;;;;;;;;;;;;;;5075445;27;19926;-65
2024/04/08 05:56:09;;;;;;;;;;;;;;;;;;5073734;28;20550;-65
2024/04/08 05:58:37;;;;;;;;;;;;;;;;;;5076578;27;20621;-65
2024/04/08 06:01:03;;;;;;;;;;;;;;;;;;5081066;28;19973;-65
2024/04/08 06:03:31;;;;;;;;;;;;;;;;;;5097903;27;20412;-66
2024/04/08 06:05:58;;;;;;;;;;;;;;;;;;5080651;27;19920;-64
2024/04/08 06:08:23;;;;;;;;;;;;;;;;;;5100264;27;20006;-65
2024/04/08 06:10:50;;;;;;;;;;;;;;;;;;5054853;27;19919;-65
2024/04/08 06:13:16;;;;;;;;;;;;;;;;;;5078968;27;19916;-66
2024/04/08 06:15:41;;;;;;;;;;;;;;;;;;5077381;28;20371;-66
2024/04/08 06:18:06;;;;;;;;;;;;;;;;;;5080678;27;19915;-66
2024/04/08 06:20:37;;;;;;;;;;;;;;;;;;5080676;27;20602;-66
2024/04/08 06:23:02;;;;;;;;;;;;;;;;;;5097947;27;19916;-66
2024/04/08 06:25:28;;;;;;;;;;;;;;;;;;5080202;27;21602;-66
2024/04/08 06:27:53;;;;;;;;;;;;;;;;;;5082059;27;19927;-65
2024/04/08 06:30:21;;;;;;;;;;;;;;;;;;5098717;27;21716;-65
2024/04/08 06:32:49;;;;;;;;;;;;;;;;;;5083757;28;19920;-65
2024/04/08 06:35:14;;;;;;;;;;;;;;;;;;5061497;27;19926;-66
2024/04/08 06:37:39;;;;;;;;;;;;;;;;;;5078994;28;20544;-66
2024/04/08 06:40:09;;;;;;;;;;;;;;;;;;5080162;27;19916;-66
2024/04/08 06:42:34;;;;;;;;;;;;;;;;;;5066836;28;19959;-66
2024/04/08 06:45:05;;;;;;;;;;;;;;;;;;5077239;28;20054;-66
2024/04/08 06:47:30;;;;;;;;;;;;;;;;;;5097802;28;19927;-67
2024/04/08 06:49:56;;;;;;;;;;;;;;;;;;5094176;28;19923;-65
2024/04/08 06:52:24;;;;;;;;;;;;;;;;;;5059954;28;20655;-65
2024/04/08 06:54:49;;;;;;;;;;;;;;;;;;5098847;28;20120;-65
2024/04/08 06:57:18;;;;;;;;;;;;;;;;;;5078013;28;19920;-67
2024/04/08 06:59:45;;;;;;;;;;;;;;;;;;5082935;27;19974;-66
2024/04/08 07:02:11;;;;;;;;;;;;;;;;;;5065616;27;19967;-65
2024/04/08 07:04:36;;;;;;;;;;;;;;;;;;5068018;27;19999;-65
2024/04/08 07:07:01;;;;;;;;;;;;;;;;;;5082658;27;20396;-66
2024/04/08 07:09:29;;;;;;;;;;;;;;;;;;5086391;27;19920;-67
2024/04/08 07:11:54;;;;;;;;;;;;;;;;;;5102446;27;19920;-66
2024/04/08 07:14:22;;;;;;;;;;;;;;;;;;5098361;27;19925;-66
2024/04/08 07:16:51;;;;;;;;;;;;;;;;;;5071494;27;20429;-66
2024/04/08 07:19:19;;;;;;;;;;;;;;;;;;5099552;27;21508;-66
2024/04/08 07:21:44;;;;;;;;;;;;;;;;;;5082726;27;19934;-65
2024/04/08 07:24:12;;;;;;;;;;;;;;;;;;5078910;27;19927;-65
2024/04/08 07:26:39;;;;;;;;;;;;;;;;;;5082330;27;19941;-65
2024/04/08 07:29:10;;;;;;;;;;;;;;;;;;5098889;27;19924;-67
2024/04/08 07:31:35;;;;;;;;;;;;;;;;;;5063608;27;19954;-65
2024/04/08 07:34:03;;;;;;;;;;;;;;;;;;5075679;27;19916;-66
2024/04/08 07:36:31;;;;;;;;;;;;;;;;;;5081278;27;19916;-66
2024/04/08 07:38:57;;;;;;;;;;;;;;;;;;5080365;27;20564;-66
2024/04/08 07:41:24;;;;;;;;;;;;;;;;;;5084265;27;19917;-66
2024/04/08 07:43:52;;;;;;;;;;;;;;;;;;5097009;27;19929;-66
2024/04/08 07:46:17;;;;;;;;;;;;;;;;;;5081032;27;20326;-66
2024/04/08 07:48:45;;;;;;;;;;;;;;;;;;5097673;27;19920;-66
2024/04/08 07:51:13;;;;;;;;;;;;;;;;;;5099731;27;19924;-66
2024/04/08 07:53:40;;;;;;;;;;;;;;;;;;5081764;27;20514;-66
2024/04/08 07:56:09;;;;;;;;;;;;;;;;;;5097777;27;20314;-65
2024/04/08 07:58:34;;;;;;;;;;;;;;;;;;5078618;27;20287;-66
2024/04/08 08:00:59;;;;;;;;;;;;;;;;;;5080485;27;21956;-67
2024/04/08 08:03:26;;;;;;;;;;;;;;;;;;5095118;27;19920;-66
2024/04/08 08:05:51;;;;;;;;;;;;;;;;;;5064326;27;19920;-65
2024/04/08 08:08:19;;;;;;;;;;;;;;;;;;5100716;27;19939;-66
2024/04/08 08:10:45;;;;;;;;;;;;;;;;;;5100749;27;19920;-66
2024/04/08 08:13:10;;;;;;;;;;;;;;;;;;5080306;27;19920;-66
2024/04/08 08:15:35;;;;;;;;;;;;;;;;;;5096101;27;20426;-66
2024/04/08 08:18:01;;;;;;;;;;;;;;;;;;5079711;27;20161;-66
2024/04/08 08:20:26;;;;;;;;;;;;;;;;;;5097406;27;20647;-66
2024/04/08 08:22:56;;;;;;;;;;;;;;;;;;5097719;27;19935;-66
2024/04/08 08:25:24;;;;;;;;;;;;;;;;;;5083210;27;20014;-66
2024/04/08 08:27:52;;;;;;;;;;;;;;;;;;5100240;27;19923;-66
2024/04/08 08:30:17;;;;;;;;;;;;;;;;;;5081473;27;19922;-67
2024/04/08 08:32:44;;;;;;;;;;;;;;;;;;5081043;27;20320;-66
2024/04/08 08:35:15;;;;;;;;;;;;;;;;;;5093418;27;20796;-66
2024/04/08 08:37:40;;;;;;;;;;;;;;;;;;5060919;27;19919;-65
2024/04/08 08:40:05;;;;;;;;;;;;;;;;;;5076321;27;20500;-67
2024/04/08 08:42:31;;;;;;;;;;;;;;;;;;5099002;27;19915;-66
2024/04/08 08:44:56;;;;;;;;;;;;;;;;;;5094637;27;19926;-66
2024/04/08 08:47:21;;;;;;;;;;;;;;;;;;5097797;27;20452;-66
2024/04/08 08:49:52;;;;;;;;;;;;;;;;;;5078504;27;19980;-66
2024/04/08 08:52:20;;;;;;;;;;;;;;;;;;5067372;27;19984;-66
2024/04/08 08:54:45;;;;;;;;;;;;;;;;;;5076170;27;19915;-66
2024/04/08 08:57:16;;;;;;;;;;;;;;;;;;5078220;27;19927;-66
2024/04/08 08:59:41;;;;;;;;;;;;;;;;;;5096733;27;19916;-67
2024/04/08 09:02:07;;;;;;;;;;;;;;;;;;5060759;27;19964;-68
2024/04/08 09:04:32;;;;;;;;;;;;;;;;;;5077500;27;19915;-66
2024/04/08 09:06:57;;;;;;;;;;;;;;;;;;5096565;27;20385;-67
2024/04/08 09:09:23;;;;;;;;;;;;;;;;;;5094092;27;20263;-66
2024/04/08 09:11:48;;;;;;;;;;;;;;;;;;5060307;27;19931;-67
2024/04/08 09:14:14;;;;;;;;;;;;;;;;;;5059704;28;19924;-67
2024/04/08 09:16:48;;;;;;;;;;;;;;;;;;5097435;27;19926;-67
2024/04/08 09:19:16;;;;;;;;;;;;;;;;;;5056568;27;19920;-66
2024/04/08 09:21:41;;;;;;;;;;;;;;;;;;5095492;27;20018;-68
2024/04/08 09:24:06;;;;;;;;;;;;;;;;;;5077289;28;19958;-69
2024/04/08 09:26:32;;;;;;;;;;;;;;;;;;5077335;27;20499;-69
2024/04/08 09:29:00;;;;;;;;;;;;;;;;;;5079239;27;19919;-67
2024/04/08 09:31:26;;;;;;;;;;;;;;;;;;5058759;27;19931;-68
2024/04/08 09:33:51;;;;;;;;;;;;;;;;;;5095885;27;19923;-67
2024/04/08 09:36:19;;;;;;;;;;;;;;;;;;5076240;27;19919;-67
2024/04/08 09:38:44;;;;;;;;;;;;;;;;;;5078373;27;19915;-68
2024/04/08 09:41:09;;;;;;;;;;;;;;;;;;5078527;27;20398;-68
2024/04/08 09:43:34;;;;;;;;;;;;;;;;;;5095576;27;20157;-68
2024/04/08 09:46:02;;;;;;;;;;;;;;;;;;5076685;27;20286;-68
2024/04/08 09:48:27;;;;;;;;;;;;;;;;;;5094291;27;19947;-68
2024/04/08 09:50:55;;;;;;;;;;;;;;;;;;5060000;27;19981;-69
2024/04/08 09:53:20;;;;;;;;;;;;;;;;;;5075303;27;19927;-68
2024/04/08 09:55:47;;;;;;;;;;;;;;;;;;5090665;27;19916;-68
2024/04/08 09:58:16;;;;;;;;;;;;;;;;;;5073186;28;19919;-70
2024/04/08 10:00:41;;;;;;;;;;;;;;;;;;5067065;27;20418;-67
2024/04/08 10:03:06;;;;;;;;;;;;;;;;;;5093386;27;19923;-69
2024/04/08 10:05:31;;;;;;;;;;;;;;;;;;5074574;28;20236;-66
2024/04/08 10:07:59;;;;;;;;;;;;;;;;;;5061838;27;20014;-68
2024/04/08 10:10:25;;;;;;;;;;;;;;;;;;5074294;27;19923;-67
2024/04/08 10:12:55;;;;;;;;;;;;;;;;;;5093151;27;19919;-66
2024/04/08 10:15:22;;;;;;;;;;;;;;;;;;5090731;27;19970;-67
2024/04/08 10:17:53;;;;;;;;;;;;;;;;;;5089896;27;19973;-67
2024/04/08 10:20:18;;;;;;;;;;;;;;;;;;5074456;27;20660;-66
2024/04/08 10:22:46;;;;;;;;;;;;;;;;;;5075548;27;21650;-68
2024/04/08 10:25:14;;;;;;;;;;;;;;;;;;5075234;28;19940;-67
2024/04/08 10:27:42;;;;;;;;;;;;;;;;;;5074759;27;19911;-68
2024/04/08 10:30:07;;;;;;;;;;;;;;;;;;5092666;27;19922;-67
2024/04/08 10:32:36;;;;;;;;;;;;;;;;;;5089939;27;19931;-66
2024/04/08 10:35:02;;;;;;;;;;;;;;;;;;5092823;27;20090;-66
2024/04/08 10:37:27;;;;;;;;;;;;;;;;;;5075290;28;20271;-67
2024/04/08 10:39:55;;;;;;;;;;;;;;;;;;5093736;27;20388;-67
2024/04/08 10:42:24;;;;;;;;;;;;;;;;;;5094598;27;19967;-67
2024/04/08 10:44:55;;;;;;;;;;;;;;;;;;5092035;28;19920;-67
2024/04/08 10:47:23;;;;;;;;;;;;;;;;;;5059141;28;20367;-66
2024/04/08 10:49:48;;;;;;;;;;;;;;;;;;5067961;28;20479;-68
2024/04/08 10:52:16;;;;;;;;;;;;;;;;;;5093519;28;20317;-67
2024/04/08 10:54:41;;;;;;;;;;;;;;;;;;5093113;28;20380;-67
2024/04/08 10:57:09;;;;;;;;;;;;;;;;;;5076346;28;20011;-66
2024/04/08 10:59:34;;;;;;;;;;;;;;;;;;5092372;28;20279;-67
2024/04/08 11:02:00;;;;;;;;;;;;;;;;;;5077187;28;19921;-67
2024/04/08 11:04:25;;;;;;;;;;;;;;;;;;5092745;28;19916;-67
2024/04/08 11:06:53;;;;;;;;;;;;;;;;;;5077578;28;20009;-67
2024/04/08 11:09:21;;;;;;;;;;;;;;;;;;5093554;28;19947;-67
2024/04/08 11:11:46;;;;;;;;;;;;;;;;;;5077105;28;20814;-66
2024/04/08 11:14:11;;;;;;;;;;;;;;;;;;5073346;28;19919;-66
2024/04/08 11:16:36;;;;;;;;;;;;;;;;;;5092574;28;20244;-67
2024/04/08 11:19:02;;;;;;;;;;;;;;;;;;5072116;28;19929;-67
2024/04/08 11:21:28;;;;;;;;;;;;;;;;;;5091133;28;20438;-66
2024/04/08 11:23:53;;;;;;;;;;;;;;;;;;5092334;28;20457;-69
2024/04/08 11:26:21;;;;;;;;;;;;;;;;;;5071963;28;19915;-68
2024/04/08 11:28:46;;;;;;;;;;;;;;;;;;5051245;28;20555;-67
2024/04/08 11:31:11;;;;;;;;;;;;;;;;;;5074244;28;20370;-67
2024/04/08 11:33:36;;;;;;;;;;;;;;;;;;5090495;28;19916;-68
2024/04/08 11:36:04;;;;;;;;;;;;;;;;;;5074656;28;19923;-67
2024/04/08 11:38:29;;;;;;;;;;;;;;;;;;5074083;28;19926;-67
2024/04/08 11:40:58;;;;;;;;;;;;;;;;;;5074469;28;19912;-67
2024/04/08 11:43:26;;;;;;;;;;;;;;;;;;5060591;27;19922;-66
2024/04/08 11:45:55;;;;;;;;;;;;;;;;;;5080236;27;20226;-67
2024/04/08 11:48:21;;;;;;;;;;;;;;;;;;5097990;27;20002;-67
2024/04/08 11:50:47;;;;;;;;;;;;;;;;;;5077748;27;19936;-66
2024/04/08 11:53:15;;;;;;;;;;;;;;;;;;5096466;27;19972;-67
2024/04/08 11:55:41;;;;;;;;;;;;;;;;;;5099000;27;20557;-65
2024/04/08 11:58:07;;;;;;;;;;;;;;;;;;5095534;27;19933;-66
2024/04/08 12:00:32;;;;;;;;;;;;;;;;;;5100123;27;20021;-67
2024/04/08 12:03:00;;;;;;;;;;;;;;;;;;5100460;27;19919;-67
2024/04/08 12:05:25;;;;;;;;;;;;;;;;;;5095927;27;19915;-67
2024/04/08 12:07:53;;;;;;;;;;;;;;;;;;5079648;27;19915;-67
2024/04/08 12:10:21;;;;;;;;;;;;;;;;;;5079795;27;20263;-68
2024/04/08 12:12:49;;;;;;;;;;;;;;;;;;5100074;27;21883;-67
2024/04/08 12:15:19;;;;;;;;;;;;;;;;;;5070625;27;20425;-67
2024/04/08 12:17:45;;;;;;;;;;;;;;;;;;5055813;27;20433;-67
2024/04/08 12:20:10;;;;;;;;;;;;;;;;;;5060497;27;19930;-68
2024/04/08 12:22:40;;;;;;;;;;;;;;;;;;5061707;27;19916;-66
2024/04/08 12:25:05;;;;;;;;;;;;;;;;;;5077967;27;20074;-67
2024/04/08 12:27:30;;;;;;;;;;;;;;;;;;5095848;27;20469;-67
2024/04/08 12:29:56;;;;;;;;;;;;;;;;;;5095431;27;19923;-66
2024/04/08 12:32:24;;;;;;;;;;;;;;;;;;5079939;27;19920;-68
2024/04/08 12:34:51;;;;;;;;;;;;;;;;;;5060628;27;20282;-65
2024/04/08 12:37:17;;;;;;;;;;;;;;;;;;5078946;27;19916;-67
2024/04/08 12:39:45;;;;;;;;;;;;;;;;;;5059653;27;20017;-66
2024/04/08 12:42:10;;;;;;;;;;;;;;;;;;5077068;27;19915;-67
2024/04/08 12:44:38;;;;;;;;;;;;;;;;;;5079409;27;19920;-67
2024/04/08 12:47:05;;;;;;;;;;;;;;;;;;5063893;27;20329;-66
2024/04/08 12:49:34;;;;;;;;;;;;;;;;;;5094702;27;19919;-65
2024/04/08 12:51:59;;;;;;;;;;;;;;;;;;5077715;27;20417;-65
2024/04/08 12:54:24;;;;;;;;;;;;;;;;;;5095961;27;19920;-66
2024/04/08 12:56:52;;;;;;;;;;;;;;;;;;5097251;27;20011;-66
2024/04/08 12:59:22;;;;;;;;;;;;;;;;;;5094348;27;19919;-66
2024/04/08 13:01:47;;;;;;;;;;;;;;;;;;5095494;27;19968;-66
2024/04/08 13:04:12;;;;;;;;;;;;;;;;;;5065287;27;19919;-67
2024/04/08 13:06:41;;;;;;;;;;;;;;;;;;5097347;27;20462;-66
2024/04/08 13:09:06;;;;;;;;;;;;;;;;;;5096638;27;19923;-66
2024/04/08 13:11:31;;;;;;;;;;;;;;;;;;5078978;27;19992;-67
2024/04/08 13:13:56;;;;;;;;;;;;;;;;;;5097905;27;19955;-67
2024/04/08 13:16:24;;;;;;;;;;;;;;;;;;5078232;27;20010;-66
2024/04/08 13:18:50;;;;;;;;;;;;;;;;;;5063953;28;20332;-65
2024/04/08 13:21:18;;;;;;;;;;;;;;;;;;5094545;27;19923;-66
2024/04/08 13:23:43;;;;;;;;;;;;;;;;;;5077853;27;20033;-67
2024/04/08 13:26:08;;;;;;;;;;;;;;;;;;5061573;27;20014;-67
2024/04/08 13:28:33;;;;;;;;;;;;;;;;;;5075630;27;20482;-66
2024/04/08 13:30:59;;;;;;;;;;;;;;;;;;5098048;27;20329;-65
2024/04/08 13:33:24;;;;;;;;;;;;;;;;;;5092513;27;19920;-65
2024/04/08 13:35:52;;;;;;;;;;;;;;;;;;5077212;27;20417;-66
2024/04/08 13:38:17;;;;;;;;;;;;;;;;;;5094773;27;20010;-66
2024/04/08 13:40:43;;;;;;;;;;;;;;;;;;5069490;28;20397;-66
2024/04/08 13:43:08;;;;;;;;;;;;;;;;;;5077643;27;21566;-65
2024/04/08 13:45:36;;;;;;;;;;;;;;;;;;5095337;27;19923;-65
2024/04/08 13:48:01;;;;;;;;;;;;;;;;;;5079465;27;19924;-65
2024/04/08 13:50:27;;;;;;;;;;;;;;;;;;5060308;27;20279;-65
2024/04/08 13:52:52;;;;;;;;;;;;;;;;;;5096634;27;19920;-66
2024/04/08 13:56:57;;;;;;;;;;;;;;;;;;5363275;26;19928;-65
2024/04/08 13:59:25;;;;;;;;;;;;;;;;;;5351975;26;19971;-66
2024/04/08 14:01:53;;;;;;;;;;;;;;;;;;5331952;26;19945;-67
2024/04/08 14:04:18;;;;;;;;;;;;;;;;;;5345448;26;19937;-66
2024/04/08 14:06:43;;;;;;;;;;;;;;;;;;5352382;26;19965;-67
2024/04/08 14:09:11;;;;;;;;;;;;;;;;;;5348044;26;20580;-67
2024/04/08 14:11:36;;;;;;;;;;;;;;;;;;5347901;26;20468;-65
2024/04/08 14:14:04;;;;;;;;;;;;;;;;;;5322668;26;20343;-64
2024/04/08 14:16:29;;;;;;;;;;;;;;;;;;5349123;26;20287;-66
2024/04/08 14:18:57;;;;;;;;;;;;;;;;;;5328989;26;19937;-65
2024/04/08 14:21:25;;;;;;;;;;;;;;;;;;5351682;26;20334;-66
2024/04/08 14:23:50;;;;;;;;;;;;;;;;;;5347225;26;19936;-66
2024/04/08 14:26:15;;;;;;;;;;;;;;;;;;5323478;26;19938;-65
2024/04/08 14:28:44;;;;;;;;;;;;;;;;;;5346730;26;19970;-65
2024/04/08 14:31:09;;;;;;;;;;;;;;;;;;5348464;26;19937;-65
2024/04/08 14:33:37;;;;;;;;;;;;;;;;;;5346109;26;19945;-66
2024/04/08 14:36:05;;;;;;;;;;;;;;;;;;5322285;26;19998;-65
2024/04/08 14:38:34;;;;;;;;;;;;;;;;;;5351391;26;19985;-65
2024/04/08 14:41:03;;;;;;;;;;;;;;;;;;5347650;26;20288;-65
2024/04/08 14:43:30;;;;;;;;;;;;;;;;;;5348271;26;20377;-65
2024/04/08 14:45:58;;;;;;;;;;;;;;;;;;5353610;26;20080;-65
2024/04/08 14:48:23;;;;;;;;;;;;;;;;;;5324451;26;19974;-65
2024/04/08 14:50:48;;;;;;;;;;;;;;;;;;5329203;26;20304;-65
2024/04/08 14:53:14;;;;;;;;;;;;;;;;;;5349845;26;19945;-66
2024/04/08 14:55:40;;;;;;;;;;;;;;;;;;5366039;26;20417;-65
2024/04/08 14:58:05;;;;;;;;;;;;;;;;;;5349957;26;19988;-65
2024/04/08 15:00:33;;;;;;;;;;;;;;;;;;5351698;26;19941;-65
2024/04/08 15:03:00;;;;;;;;;;;;;;;;;;5349163;26;20067;-66
2024/04/08 15:05:29;;;;;;;;;;;;;;;;;;5356718;26;19944;-65
2024/04/08 15:07:57;;;;;;;;;;;;;;;;;;5337535;26;19962;-65
2024/04/08 15:10:22;;;;;;;;;;;;;;;;;;5335445;26;19938;-66
2024/04/08 15:12:50;;;;;;;;;;;;;;;;;;5334583;26;19938;-66
2024/04/08 15:15:20;;;;;;;;;;;;;;;;;;5334309;26;19944;-66
2024/04/08 15:17:48;;;;;;;;;;;;;;;;;;5334665;26;19944;-66
2024/04/08 15:20:13;;;;;;;;;;;;;;;;;;5334277;26;22076;-67
2024/04/08 15:22:38;;;;;;;;;;;;;;;;;;5336729;26;19938;-66
2024/04/08 15:25:06;;;;;;;;;;;;;;;;;;5329229;26;19937;-64
2024/04/08 15:27:32;;;;;;;;;;;;;;;;;;5337542;26;19944;-64
2024/04/08 15:29:58;;;;;;;;;;;;;;;;;;5331345;26;20302;-65
2024/04/08 15:32:23;;;;;;;;;;;;;;;;;;5334985;26;19945;-66
2024/04/08 15:34:48;;;;;;;;;;;;;;;;;;5330948;26;19950;-65
2024/04/08 15:37:16;;;;;;;;;;;;;;;;;;5343918;26;19938;-66
2024/04/08 15:39:41;;;;;;;;;;;;;;;;;;5329061;26;20342;-65
2024/04/08 15:42:07;;;;;;;;;;;;;;;;;;5333595;26;22109;-66
2024/04/08 15:44:32;;;;;;;;;;;;;;;;;;5334077;26;20012;-66
2024/04/08 15:46:57;;;;;;;;;;;;;;;;;;5329704;26;20334;-65
2024/04/08 15:49:22;;;;;;;;;;;;;;;;;;5333673;26;21273;-66
2024/04/08 15:51:48;;;;;;;;;;;;;;;;;;5328834;26;19937;-66
2024/04/08 15:54:13;;;;;;;;;;;;;;;;;;5332370;26;19930;-66
2024/04/08 15:56:41;;;;;;;;;;;;;;;;;;5346892;26;19934;-65
2024/04/08 15:59:06;;;;;;;;;;;;;;;;;;5334499;26;19938;-66
2024/04/08 16:01:34;;;;;;;;;;;;;;;;;;5310960;26;20012;-66
2024/04/08 16:04:03;;;;;;;;;;;;;;;;;;5334120;26;19937;-65
2024/04/08 16:06:29;;;;;;;;;;;;;;;;;;5338608;26;19941;-66
2024/04/08 16:08:56;;;;;;;;;;;;;;;;;;5346155;26;19945;-66
2024/04/08 16:11:22;;;;;;;;;;;;;;;;;;5335896;26;19939;-65
2024/04/08 16:13:49;;;;;;;;;;;;;;;;;;5356626;26;20305;-65
2024/04/08 16:16:17;;;;;;;;;;;;;;;;;;5336409;26;19938;-66
2024/04/08 16:18:42;;;;;;;;;;;;;;;;;;5329933;26;19937;-66
2024/04/08 16:21:10;;;;;;;;;;;;;;;;;;5334281;26;19938;-66
2024/04/08 16:23:38;;;;;;;;;;;;;;;;;;5334731;26;20355;-66
2024/04/08 16:26:06;;;;;;;;;;;;;;;;;;5326500;26;20490;-65
2024/04/08 16:28:33;;;;;;;;;;;;;;;;;;5334714;26;19934;-66
2024/04/08 16:31:02;;;;;;;;;;;;;;;;;;5358911;26;21597;-66
2024/04/08 16:33:30;;;;;;;;;;;;;;;;;;5331579;26;20019;-65
2024/04/08 16:35:58;;;;;;;;;;;;;;;;;;5325048;26;19941;-66
2024/04/08 16:38:26;;;;;;;;;;;;;;;;;;5341799;26;20134;-66
2024/04/08 16:40:54;;;;;;;;;;;;;;;;;;5331039;26;19938;-66
2024/04/08 16:43:20;;;;;;;;;;;;;;;;;;5306905;26;19952;-66